sensor_id;sensor_type;location;lat;lon;timestamp;temperature;humidity
60033;DHT22;45905;50.570;10.428;2023-02-17T00:01:29;1.50;99.90
60033;DHT22;45905;50.570;10.428;2023-02-17T00:03:58;1.60;99.90
60033;DHT22;45905;50.570;10.428;2023-02-17T00:06:29;1.80;99.90
60033;DHT22;45905;50.570;10.428;2023-02-17T00:08:58;1.50;99.90
60033;DHT22;45905;50.570;10.428;2023-02-17T00:11:26;1.50;99.90
60033;DHT22;45905;50.570;10.428;2023-02-17T00:13:54;1.60;99.90
60033;DHT22;45905;50.570;10.428;2023-02-17T00:16:24;1.50;99.90
60033;DHT22;45905;50.570;10.428;2023-02-17T00:18:58;1.50;99.90
60033;DHT22;45905;50.570;10.428;2023-02-17T00:21:31;1.60;99.90
60033;DHT22;45905;50.570;10.428;2023-02-17T00:23:58;1.40;99.90
60033;DHT22;45905;50.570;10.428;2023-02-17T00:26:26;1.60;99.90
60033;DHT22;45905;50.570;10.428;2023-02-17T00:28:53;1.60;99.90
60033;DHT22;45905;50.570;10.428;2023-02-17T00:31:21;1.70;99.90
60033;DHT22;45905;50.570;10.428;2023-02-17T00:33:53;1.40;99.90
60033;DHT22;45905;50.570;10.428;2023-02-17T00:36:22;1.40;99.90
60033;DHT22;45905;50.570;10.428;2023-02-17T00:38:50;1.50;99.90
60033;DHT22;45905;50.570;10.428;2023-02-17T00:41:18;1.50;99.90
60033;DHT22;45905;50.570;10.428;2023-02-17T00:43:46;1.40;99.90
60033;DHT22;45905;50.570;10.428;2023-02-17T00:46:15;1.50;99.90
60033;DHT22;45905;50.570;10.428;2023-02-17T00:48:44;1.50;99.90
60033;DHT22;45905;50.570;10.428;2023-02-17T00:51:15;1.70;99.90
60033;DHT22;45905;50.570;10.428;2023-02-17T00:53:43;1.60;99.90
60033;DHT22;45905;50.570;10.428;2023-02-17T00:56:11;1.60;99.90
60033;DHT22;45905;50.570;10.428;2023-02-17T00:58:39;1.60;99.90
60033;DHT22;45905;50.570;10.428;2023-02-17T01:01:08;1.70;99.90
60033;DHT22;45905;50.570;10.428;2023-02-17T01:03:39;1.60;99.90
60033;DHT22;45905;50.570;10.428;2023-02-17T01:06:11;1.70;99.90
60033;DHT22;45905;50.570;10.428;2023-02-17T01:08:47;1.70;99.90
60033;DHT22;45905;50.570;10.428;2023-02-17T01:11:19;1.60;99.90
60033;DHT22;45905;50.570;10.428;2023-02-17T01:13:48;1.60;99.90
60033;DHT22;45905;50.570;10.428;2023-02-17T01:16:22;1.70;99.90
60033;DHT22;45905;50.570;10.428;2023-02-17T01:18:51;1.70;99.90
60033;DHT22;45905;50.570;10.428;2023-02-17T01:21:27;1.70;99.90
60033;DHT22;45905;50.570;10.428;2023-02-17T01:23:56;1.80;99.90
60033;DHT22;45905;50.570;10.428;2023-02-17T01:26:29;1.70;99.90
60033;DHT22;45905;50.570;10.428;2023-02-17T01:29:00;1.70;99.90
60033;DHT22;45905;50.570;10.428;2023-02-17T01:31:27;1.80;99.90
60033;DHT22;45905;50.570;10.428;2023-02-17T01:33:56;2.00;99.90
60033;DHT22;45905;50.570;10.428;2023-02-17T01:36:26;1.80;99.90
60033;DHT22;45905;50.570;10.428;2023-02-17T01:38:53;1.70;99.90
60033;DHT22;45905;50.570;10.428;2023-02-17T01:41:23;1.80;99.90
60033;DHT22;45905;50.570;10.428;2023-02-17T01:46:40;1.80;99.90
60033;DHT22;45905;50.570;10.428;2023-02-17T01:51:56;1.80;99.90
60033;DHT22;45905;50.570;10.428;2023-02-17T01:55:10;1.70;99.90
60033;DHT22;45905;50.570;10.428;2023-02-17T01:57:42;1.90;99.90
60033;DHT22;45905;50.570;10.428;2023-02-17T02:00:14;1.90;99.90
60033;DHT22;45905;50.570;10.428;2023-02-17T02:02:45;1.90;99.90
60033;DHT22;45905;50.570;10.428;2023-02-17T02:05:17;1.90;99.90
60033;DHT22;45905;50.570;10.428;2023-02-17T02:07:47;1.90;99.90
60033;DHT22;45905;50.570;10.428;2023-02-17T02:10:16;1.90;99.90
60033;DHT22;45905;50.570;10.428;2023-02-17T02:12:44;2.00;99.90
60033;DHT22;45905;50.570;10.428;2023-02-17T02:15:17;2.00;99.90
60033;DHT22;45905;50.570;10.428;2023-02-17T02:24:21;2.00;99.90
60033;DHT22;45905;50.570;10.428;2023-02-17T02:30:03;2.10;99.90
60033;DHT22;45905;50.570;10.428;2023-02-17T02:35:41;2.10;99.90
60033;DHT22;45905;50.570;10.428;2023-02-17T02:38:46;2.10;99.90
60033;DHT22;45905;50.570;10.428;2023-02-17T02:41:31;2.10;99.90
60033;DHT22;45905;50.570;10.428;2023-02-17T02:44:04;2.40;99.90
60033;DHT22;45905;50.570;10.428;2023-02-17T02:46:34;2.20;99.90
60033;DHT22;45905;50.570;10.428;2023-02-17T02:49:02;2.20;99.90
60033;DHT22;45905;50.570;10.428;2023-02-17T02:51:56;2.20;99.90
60033;DHT22;45905;50.570;10.428;2023-02-17T02:54:40;2.20;99.90
60033;DHT22;45905;50.570;10.428;2023-02-17T03:00:39;2.20;99.90
60033;DHT22;45905;50.570;10.428;2023-02-17T03:06:21;2.30;99.90
60033;DHT22;45905;50.570;10.428;2023-02-17T03:09:18;2.30;99.90
60033;DHT22;45905;50.570;10.428;2023-02-17T03:11:49;2.30;99.90
60033;DHT22;45905;50.570;10.428;2023-02-17T03:14:19;2.30;99.90
60033;DHT22;45905;50.570;10.428;2023-02-17T03:16:49;2.30;99.90
60033;DHT22;45905;50.570;10.428;2023-02-17T03:19:19;2.30;99.90
60033;DHT22;45905;50.570;10.428;2023-02-17T03:22:20;2.40;99.90
60033;DHT22;45905;50.570;10.428;2023-02-17T03:24:54;2.40;99.90
60033;DHT22;45905;50.570;10.428;2023-02-17T03:27:21;2.40;99.90
60033;DHT22;45905;50.570;10.428;2023-02-17T03:29:48;2.30;99.90
60033;DHT22;45905;50.570;10.428;2023-02-17T03:32:17;2.40;99.90
60033;DHT22;45905;50.570;10.428;2023-02-17T03:34:45;2.40;99.90
60033;DHT22;45905;50.570;10.428;2023-02-17T03:37:12;2.40;99.90
60033;DHT22;45905;50.570;10.428;2023-02-17T03:39:39;2.40;99.90
60033;DHT22;45905;50.570;10.428;2023-02-17T03:42:07;2.50;99.90
60033;DHT22;45905;50.570;10.428;2023-02-17T03:44:34;2.70;99.90
60033;DHT22;45905;50.570;10.428;2023-02-17T03:47:01;2.50;99.90
60033;DHT22;45905;50.570;10.428;2023-02-17T03:49:28;2.50;99.90
60033;DHT22;45905;50.570;10.428;2023-02-17T03:51:56;2.50;99.90
60033;DHT22;45905;50.570;10.428;2023-02-17T03:54:24;2.50;99.90
60033;DHT22;45905;50.570;10.428;2023-02-17T03:56:52;2.50;99.90
60033;DHT22;45905;50.570;10.428;2023-02-17T03:59:19;2.50;99.90
60033;DHT22;45905;50.570;10.428;2023-02-17T04:01:46;2.50;99.90
60033;DHT22;45905;50.570;10.428;2023-02-17T04:04:14;2.60;99.90
60033;DHT22;45905;50.570;10.428;2023-02-17T04:06:41;2.60;99.90
60033;DHT22;45905;50.570;10.428;2023-02-17T04:09:08;2.60;99.90
60033;DHT22;45905;50.570;10.428;2023-02-17T04:11:35;2.60;99.90
60033;DHT22;45905;50.570;10.428;2023-02-17T04:14:03;2.60;99.90
60033;DHT22;45905;50.570;10.428;2023-02-17T04:16:30;2.70;99.90
60033;DHT22;45905;50.570;10.428;2023-02-17T04:18:57;2.70;99.90
60033;DHT22;45905;50.570;10.428;2023-02-17T04:21:24;2.70;99.90
60033;DHT22;45905;50.570;10.428;2023-02-17T04:23:51;2.70;99.90
60033;DHT22;45905;50.570;10.428;2023-02-17T04:26:20;2.70;99.90
60033;DHT22;45905;50.570;10.428;2023-02-17T04:28:48;2.70;99.90
60033;DHT22;45905;50.570;10.428;2023-02-17T04:31:15;2.80;99.90
60033;DHT22;45905;50.570;10.428;2023-02-17T04:33:42;2.80;99.90
60033;DHT22;45905;50.570;10.428;2023-02-17T04:36:09;2.80;99.90
60033;DHT22;45905;50.570;10.428;2023-02-17T04:38:38;2.90;99.90
60033;DHT22;45905;50.570;10.428;2023-02-17T04:41:05;2.80;99.90
60033;DHT22;45905;50.570;10.428;2023-02-17T04:43:33;2.90;99.90
60033;DHT22;45905;50.570;10.428;2023-02-17T04:46:00;2.90;99.90
60033;DHT22;45905;50.570;10.428;2023-02-17T04:48:27;2.90;99.90
60033;DHT22;45905;50.570;10.428;2023-02-17T04:50:55;3.00;99.90
60033;DHT22;45905;50.570;10.428;2023-02-17T04:53:22;3.00;99.90
60033;DHT22;45905;50.570;10.428;2023-02-17T04:55:50;3.00;99.90
60033;DHT22;45905;50.570;10.428;2023-02-17T04:58:20;3.10;99.90
60033;DHT22;45905;50.570;10.428;2023-02-17T05:00:48;3.10;99.90
60033;DHT22;45905;50.570;10.428;2023-02-17T05:03:17;3.20;99.90
60033;DHT22;45905;50.570;10.428;2023-02-17T05:05:45;3.20;99.90
60033;DHT22;45905;50.570;10.428;2023-02-17T05:08:12;3.30;99.90
60033;DHT22;45905;50.570;10.428;2023-02-17T05:10:39;3.30;99.90
60033;DHT22;45905;50.570;10.428;2023-02-17T05:13:06;3.40;99.90
60033;DHT22;45905;50.570;10.428;2023-02-17T05:15:33;3.40;99.90
60033;DHT22;45905;50.570;10.428;2023-02-17T05:18:01;3.50;99.90
60033;DHT22;45905;50.570;10.428;2023-02-17T05:20:29;3.60;99.90
60033;DHT22;45905;50.570;10.428;2023-02-17T05:22:57;3.60;99.90
60033;DHT22;45905;50.570;10.428;2023-02-17T05:25:24;3.70;99.90
60033;DHT22;45905;50.570;10.428;2023-02-17T05:27:51;3.70;99.90
60033;DHT22;45905;50.570;10.428;2023-02-17T05:30:18;3.70;99.90
60033;DHT22;45905;50.570;10.428;2023-02-17T05:32:45;3.80;99.90
60033;DHT22;45905;50.570;10.428;2023-02-17T05:35:12;3.80;99.90
60033;DHT22;45905;50.570;10.428;2023-02-17T05:37:40;3.80;99.90
60033;DHT22;45905;50.570;10.428;2023-02-17T05:40:07;3.80;99.90
60033;DHT22;45905;50.570;10.428;2023-02-17T05:42:35;3.90;99.90
60033;DHT22;45905;50.570;10.428;2023-02-17T05:45:08;4.00;99.90
60033;DHT22;45905;50.570;10.428;2023-02-17T05:47:36;4.00;99.90
60033;DHT22;45905;50.570;10.428;2023-02-17T05:50:03;4.10;99.90
60033;DHT22;45905;50.570;10.428;2023-02-17T05:52:31;4.10;99.90
60033;DHT22;45905;50.570;10.428;2023-02-17T05:54:58;4.10;99.90
60033;DHT22;45905;50.570;10.428;2023-02-17T05:57:25;4.10;99.90
60033;DHT22;45905;50.570;10.428;2023-02-17T05:59:53;4.20;99.90
60033;DHT22;45905;50.570;10.428;2023-02-17T06:02:20;4.20;99.90
60033;DHT22;45905;50.570;10.428;2023-02-17T06:04:47;4.30;99.90
60033;DHT22;45905;50.570;10.428;2023-02-17T06:07:14;4.30;99.90
60033;DHT22;45905;50.570;10.428;2023-02-17T06:09:42;4.30;99.90
60033;DHT22;45905;50.570;10.428;2023-02-17T06:12:09;4.40;99.90
60033;DHT22;45905;50.570;10.428;2023-02-17T06:14:36;4.40;99.90
60033;DHT22;45905;50.570;10.428;2023-02-17T06:17:03;4.40;99.90
60033;DHT22;45905;50.570;10.428;2023-02-17T06:19:30;4.60;99.90
60033;DHT22;45905;50.570;10.428;2023-02-17T06:21:57;4.60;99.90
60033;DHT22;45905;50.570;10.428;2023-02-17T06:24:24;4.40;99.90
60033;DHT22;45905;50.570;10.428;2023-02-17T06:26:51;4.50;99.90
60033;DHT22;45905;50.570;10.428;2023-02-17T06:29:18;4.50;99.90
60033;DHT22;45905;50.570;10.428;2023-02-17T06:31:45;4.60;99.90
60033;DHT22;45905;50.570;10.428;2023-02-17T06:34:13;4.60;99.90
60033;DHT22;45905;50.570;10.428;2023-02-17T06:36:40;4.70;99.90
60033;DHT22;45905;50.570;10.428;2023-02-17T06:39:07;4.70;99.90
60033;DHT22;45905;50.570;10.428;2023-02-17T06:41:34;4.80;99.90
60033;DHT22;45905;50.570;10.428;2023-02-17T06:44:02;4.80;99.90
60033;DHT22;45905;50.570;10.428;2023-02-17T06:46:29;4.80;99.90
60033;DHT22;45905;50.570;10.428;2023-02-17T06:48:56;4.80;99.90
60033;DHT22;45905;50.570;10.428;2023-02-17T06:51:26;4.90;99.90
60033;DHT22;45905;50.570;10.428;2023-02-17T06:53:54;4.90;99.90
60033;DHT22;45905;50.570;10.428;2023-02-17T06:56:22;5.00;99.90
60033;DHT22;45905;50.570;10.428;2023-02-17T06:58:50;5.00;99.90
60033;DHT22;45905;50.570;10.428;2023-02-17T07:01:23;5.00;99.90
60033;DHT22;45905;50.570;10.428;2023-02-17T07:03:55;5.00;99.90
60033;DHT22;45905;50.570;10.428;2023-02-17T07:06:24;5.00;99.90
60033;DHT22;45905;50.570;10.428;2023-02-17T07:08:52;5.00;99.90
60033;DHT22;45905;50.570;10.428;2023-02-17T07:11:19;5.10;99.90
60033;DHT22;45905;50.570;10.428;2023-02-17T07:13:46;5.20;99.90
60033;DHT22;45905;50.570;10.428;2023-02-17T07:16:14;5.10;99.90
60033;DHT22;45905;50.570;10.428;2023-02-17T07:18:42;5.10;99.90
60033;DHT22;45905;50.570;10.428;2023-02-17T07:21:10;5.10;99.90
60033;DHT22;45905;50.570;10.428;2023-02-17T07:23:37;5.20;99.90
60033;DHT22;45905;50.570;10.428;2023-02-17T07:26:10;5.20;99.90
60033;DHT22;45905;50.570;10.428;2023-02-17T07:28:38;5.20;99.90
60033;DHT22;45905;50.570;10.428;2023-02-17T07:31:08;5.30;99.90
60033;DHT22;45905;50.570;10.428;2023-02-17T07:33:41;5.20;99.90
60033;DHT22;45905;50.570;10.428;2023-02-17T07:36:14;5.20;99.90
60033;DHT22;45905;50.570;10.428;2023-02-17T07:38:43;5.30;99.90
60033;DHT22;45905;50.570;10.428;2023-02-17T07:41:13;5.30;99.90
60033;DHT22;45905;50.570;10.428;2023-02-17T07:43:42;5.20;99.90
60033;DHT22;45905;50.570;10.428;2023-02-17T07:46:11;5.30;99.90
60033;DHT22;45905;50.570;10.428;2023-02-17T07:48:39;5.30;99.90
60033;DHT22;45905;50.570;10.428;2023-02-17T07:51:09;5.30;99.90
60033;DHT22;45905;50.570;10.428;2023-02-17T07:53:38;5.40;99.90
60033;DHT22;45905;50.570;10.428;2023-02-17T07:56:08;5.40;99.90
60033;DHT22;45905;50.570;10.428;2023-02-17T07:58:39;5.40;99.90
60033;DHT22;45905;50.570;10.428;2023-02-17T08:01:16;5.50;99.90
60033;DHT22;45905;50.570;10.428;2023-02-17T08:03:47;5.50;99.90
60033;DHT22;45905;50.570;10.428;2023-02-17T08:06:20;5.60;99.90
60033;DHT22;45905;50.570;10.428;2023-02-17T08:08:49;5.60;99.90
60033;DHT22;45905;50.570;10.428;2023-02-17T08:11:36;5.60;99.90
60033;DHT22;45905;50.570;10.428;2023-02-17T08:14:25;5.70;99.90
60033;DHT22;45905;50.570;10.428;2023-02-17T08:16:55;5.70;99.90
60033;DHT22;45905;50.570;10.428;2023-02-17T08:19:22;5.80;99.90
60033;DHT22;45905;50.570;10.428;2023-02-17T08:21:55;5.80;99.90
60033;DHT22;45905;50.570;10.428;2023-02-17T08:24:23;5.80;99.90
60033;DHT22;45905;50.570;10.428;2023-02-17T08:26:50;5.90;99.90
60033;DHT22;45905;50.570;10.428;2023-02-17T08:29:17;5.90;99.90
60033;DHT22;45905;50.570;10.428;2023-02-17T08:31:49;6.00;99.90
60033;DHT22;45905;50.570;10.428;2023-02-17T08:34:18;6.00;99.90
60033;DHT22;45905;50.570;10.428;2023-02-17T08:36:46;6.00;99.90
60033;DHT22;45905;50.570;10.428;2023-02-17T08:39:15;6.30;99.90
60033;DHT22;45905;50.570;10.428;2023-02-17T08:41:44;6.10;99.90
60033;DHT22;45905;50.570;10.428;2023-02-17T08:44:15;6.20;99.90
60033;DHT22;45905;50.570;10.428;2023-02-17T08:46:45;6.20;99.90
60033;DHT22;45905;50.570;10.428;2023-02-17T08:49:23;6.30;99.90
60033;DHT22;45905;50.570;10.428;2023-02-17T08:51:51;6.40;99.90
60033;DHT22;45905;50.570;10.428;2023-02-17T08:54:19;6.50;99.90
60033;DHT22;45905;50.570;10.428;2023-02-17T08:56:46;6.50;99.90
60033;DHT22;45905;50.570;10.428;2023-02-17T08:59:13;6.60;99.90
60033;DHT22;45905;50.570;10.428;2023-02-17T09:01:41;6.60;99.90
60033;DHT22;45905;50.570;10.428;2023-02-17T09:04:11;6.70;99.90
60033;DHT22;45905;50.570;10.428;2023-02-17T09:06:42;6.70;99.90
60033;DHT22;45905;50.570;10.428;2023-02-17T09:09:14;6.70;99.90
60033;DHT22;45905;50.570;10.428;2023-02-17T09:11:43;6.70;99.90
60033;DHT22;45905;50.570;10.428;2023-02-17T09:14:11;6.80;99.90
60033;DHT22;45905;50.570;10.428;2023-02-17T09:16:38;6.80;99.90
60033;DHT22;45905;50.570;10.428;2023-02-17T09:19:07;6.90;99.90
60033;DHT22;45905;50.570;10.428;2023-02-17T09:21:34;6.90;99.90
60033;DHT22;45905;50.570;10.428;2023-02-17T09:24:02;6.90;99.90
60033;DHT22;45905;50.570;10.428;2023-02-17T09:26:29;7.00;99.90
60033;DHT22;45905;50.570;10.428;2023-02-17T09:28:56;7.00;99.90
60033;DHT22;45905;50.570;10.428;2023-02-17T09:31:25;7.00;99.90
60033;DHT22;45905;50.570;10.428;2023-02-17T09:33:53;7.10;99.90
60033;DHT22;45905;50.570;10.428;2023-02-17T09:36:23;7.10;99.90
60033;DHT22;45905;50.570;10.428;2023-02-17T09:38:54;7.10;99.90
60033;DHT22;45905;50.570;10.428;2023-02-17T09:41:26;7.20;99.90
60033;DHT22;45905;50.570;10.428;2023-02-17T09:43:58;7.20;99.90
60033;DHT22;45905;50.570;10.428;2023-02-17T09:46:43;7.20;99.90
60033;DHT22;45905;50.570;10.428;2023-02-17T09:49:40;7.20;99.90
60033;DHT22;45905;50.570;10.428;2023-02-17T09:52:21;7.20;99.90
60033;DHT22;45905;50.570;10.428;2023-02-17T09:57:56;7.30;99.90
60033;DHT22;45905;50.570;10.428;2023-02-17T10:00:29;7.30;99.90
60033;DHT22;45905;50.570;10.428;2023-02-17T10:11:31;7.60;99.90
60033;DHT22;45905;50.570;10.428;2023-02-17T10:14:04;7.60;99.90
60033;DHT22;45905;50.570;10.428;2023-02-17T10:16:41;7.60;99.90
60033;DHT22;45905;50.570;10.428;2023-02-17T10:21:57;7.70;99.90
60033;DHT22;45905;50.570;10.428;2023-02-17T10:24:32;7.70;99.90
60033;DHT22;45905;50.570;10.428;2023-02-17T10:34:15;7.80;99.90
60033;DHT22;45905;50.570;10.428;2023-02-17T10:36:47;7.80;99.90
60033;DHT22;45905;50.570;10.428;2023-02-17T10:39:41;7.80;99.90
60033;DHT22;45905;50.570;10.428;2023-02-17T10:42:25;7.80;99.90
60033;DHT22;45905;50.570;10.428;2023-02-17T10:45:01;7.90;99.90
60033;DHT22;45905;50.570;10.428;2023-02-17T10:47:34;7.90;99.90
60033;DHT22;45905;50.570;10.428;2023-02-17T10:52:54;8.00;99.90
60033;DHT22;45905;50.570;10.428;2023-02-17T10:58:26;8.20;99.90
60033;DHT22;45905;50.570;10.428;2023-02-17T11:00:58;8.20;99.90
60033;DHT22;45905;50.570;10.428;2023-02-17T11:03:29;8.30;99.90
60033;DHT22;45905;50.570;10.428;2023-02-17T11:06:03;8.40;99.90
60033;DHT22;45905;50.570;10.428;2023-02-17T11:11:26;8.40;99.90
60033;DHT22;45905;50.570;10.428;2023-02-17T11:16:55;8.50;99.90
60033;DHT22;45905;50.570;10.428;2023-02-17T11:19:33;8.50;99.90
60033;DHT22;45905;50.570;10.428;2023-02-17T11:22:04;8.60;99.90
60033;DHT22;45905;50.570;10.428;2023-02-17T11:24:33;8.60;99.90
60033;DHT22;45905;50.570;10.428;2023-02-17T11:27:06;8.60;99.90
60033;DHT22;45905;50.570;10.428;2023-02-17T11:29:36;8.60;99.90
60033;DHT22;45905;50.570;10.428;2023-02-17T11:32:06;8.60;99.90
60033;DHT22;45905;50.570;10.428;2023-02-17T11:34:37;8.70;99.90
60033;DHT22;45905;50.570;10.428;2023-02-17T11:39:45;8.70;99.90
60033;DHT22;45905;50.570;10.428;2023-02-17T11:42:29;8.70;99.90
60033;DHT22;45905;50.570;10.428;2023-02-17T11:44:59;8.70;99.90
60033;DHT22;45905;50.570;10.428;2023-02-17T11:47:47;8.80;99.90
60033;DHT22;45905;50.570;10.428;2023-02-17T11:50:53;8.80;99.90
60033;DHT22;45905;50.570;10.428;2023-02-17T11:56:40;8.90;99.90
60033;DHT22;45905;50.570;10.428;2023-02-17T11:59:26;8.90;99.90
60033;DHT22;45905;50.570;10.428;2023-02-17T12:04:52;9.10;99.90
60033;DHT22;45905;50.570;10.428;2023-02-17T12:13:37;9.60;99.90
60033;DHT22;45905;50.570;10.428;2023-02-17T12:16:18;9.20;99.90
60033;DHT22;45905;50.570;10.428;2023-02-17T12:22:28;9.20;99.90
60033;DHT22;45905;50.570;10.428;2023-02-17T12:25:21;9.30;99.90
60033;DHT22;45905;50.570;10.428;2023-02-17T12:28:08;9.30;99.90
60033;DHT22;45905;50.570;10.428;2023-02-17T12:36:13;9.30;99.90
60033;DHT22;45905;50.570;10.428;2023-02-17T12:38:46;9.40;99.90
60033;DHT22;45905;50.570;10.428;2023-02-17T12:41:31;9.40;99.90
60033;DHT22;45905;50.570;10.428;2023-02-17T12:44:04;9.40;99.90
60033;DHT22;45905;50.570;10.428;2023-02-17T12:46:45;9.50;99.90
60033;DHT22;45905;50.570;10.428;2023-02-17T12:52:09;9.60;99.90
60033;DHT22;45905;50.570;10.428;2023-02-17T12:54:53;9.70;99.90
60033;DHT22;45905;50.570;10.428;2023-02-17T13:00:58;9.80;99.90
60033;DHT22;45905;50.570;10.428;2023-02-17T13:03:34;9.90;99.90
60033;DHT22;45905;50.570;10.428;2023-02-17T13:06:10;9.90;99.90
60033;DHT22;45905;50.570;10.428;2023-02-17T13:11:51;9.90;99.90
60033;DHT22;45905;50.570;10.428;2023-02-17T13:14:28;9.90;99.90
60033;DHT22;45905;50.570;10.428;2023-02-17T13:17:18;9.90;99.90
60033;DHT22;45905;50.570;10.428;2023-02-17T13:22:36;10.00;99.90
60033;DHT22;45905;50.570;10.428;2023-02-17T13:25:24;10.00;99.90
60033;DHT22;45905;50.570;10.428;2023-02-17T13:27:53;10.00;99.90
60033;DHT22;45905;50.570;10.428;2023-02-17T13:33:03;10.00;99.90
60033;DHT22;45905;50.570;10.428;2023-02-17T13:35:41;10.10;99.90
60033;DHT22;45905;50.570;10.428;2023-02-17T13:38:09;10.10;99.90
60033;DHT22;45905;50.570;10.428;2023-02-17T13:40:41;10.20;99.90
60033;DHT22;45905;50.570;10.428;2023-02-17T13:43:18;10.20;99.90
60033;DHT22;45905;50.570;10.428;2023-02-17T13:45:46;10.20;99.90
60033;DHT22;45905;50.570;10.428;2023-02-17T13:48:23;10.30;99.90
60033;DHT22;45905;50.570;10.428;2023-02-17T13:51:00;10.30;99.90
60033;DHT22;45905;50.570;10.428;2023-02-17T13:53:40;10.30;99.90
60033;DHT22;45905;50.570;10.428;2023-02-17T13:56:10;10.30;99.90
60033;DHT22;45905;50.570;10.428;2023-02-17T13:58:48;10.40;99.90
60033;DHT22;45905;50.570;10.428;2023-02-17T14:01:18;10.40;99.90
60033;DHT22;45905;50.570;10.428;2023-02-17T14:03:51;10.50;99.90
60033;DHT22;45905;50.570;10.428;2023-02-17T14:06:28;10.50;99.90
60033;DHT22;45905;50.570;10.428;2023-02-17T14:08:58;10.50;99.90
60033;DHT22;45905;50.570;10.428;2023-02-17T14:11:27;10.60;99.90
60033;DHT22;45905;50.570;10.428;2023-02-17T14:13:58;10.60;99.90
60033;DHT22;45905;50.570;10.428;2023-02-17T14:16:35;10.70;99.90
60033;DHT22;45905;50.570;10.428;2023-02-17T14:21:35;10.70;99.90
60033;DHT22;45905;50.570;10.428;2023-02-17T14:24:04;10.80;99.90
60033;DHT22;45905;50.570;10.428;2023-02-17T14:26:45;10.80;99.90
60033;DHT22;45905;50.570;10.428;2023-02-17T14:29:14;10.90;99.90
60033;DHT22;45905;50.570;10.428;2023-02-17T14:31:44;11.00;99.90
60033;DHT22;45905;50.570;10.428;2023-02-17T14:37:05;11.10;99.90
60033;DHT22;45905;50.570;10.428;2023-02-17T14:39:33;11.20;99.90
60033;DHT22;45905;50.570;10.428;2023-02-17T14:42:01;11.20;99.90
60033;DHT22;45905;50.570;10.428;2023-02-17T14:44:28;11.30;99.90
60033;DHT22;45905;50.570;10.428;2023-02-17T14:46:55;11.50;99.90
60033;DHT22;45905;50.570;10.428;2023-02-17T14:49:22;11.60;99.90
60033;DHT22;45905;50.570;10.428;2023-02-17T14:51:49;11.70;99.90
60033;DHT22;45905;50.570;10.428;2023-02-17T14:54:17;11.70;99.90
60033;DHT22;45905;50.570;10.428;2023-02-17T14:57:04;11.80;99.90
60033;DHT22;45905;50.570;10.428;2023-02-17T14:59:33;11.80;99.90
60033;DHT22;45905;50.570;10.428;2023-02-17T15:02:00;11.80;99.90
60033;DHT22;45905;50.570;10.428;2023-02-17T15:04:27;11.60;99.90
60033;DHT22;45905;50.570;10.428;2023-02-17T15:06:54;11.80;99.90
60033;DHT22;45905;50.570;10.428;2023-02-17T15:09:29;11.70;99.90
60033;DHT22;45905;50.570;10.428;2023-02-17T15:11:57;11.70;99.90
60033;DHT22;45905;50.570;10.428;2023-02-17T15:14:24;11.70;99.90
60033;DHT22;45905;50.570;10.428;2023-02-17T15:16:52;11.70;99.90
60033;DHT22;45905;50.570;10.428;2023-02-17T15:19:19;11.70;99.90
60033;DHT22;45905;50.570;10.428;2023-02-17T15:21:48;11.70;99.90
60033;DHT22;45905;50.570;10.428;2023-02-17T15:24:20;11.70;99.90
60033;DHT22;45905;50.570;10.428;2023-02-17T15:26:53;11.70;99.90
60033;DHT22;45905;50.570;10.428;2023-02-17T15:29:22;11.60;99.90
60033;DHT22;45905;50.570;10.428;2023-02-17T15:31:52;11.60;99.90
60033;DHT22;45905;50.570;10.428;2023-02-17T15:34:27;11.60;99.90
60033;DHT22;45905;50.570;10.428;2023-02-17T15:36:58;11.60;99.90
60033;DHT22;45905;50.570;10.428;2023-02-17T15:39:27;11.60;99.90
60033;DHT22;45905;50.570;10.428;2023-02-17T15:41:55;11.60;99.90
60033;DHT22;45905;50.570;10.428;2023-02-17T15:44:43;11.60;99.90
60033;DHT22;45905;50.570;10.428;2023-02-17T15:47:16;11.60;99.90
60033;DHT22;45905;50.570;10.428;2023-02-17T15:49:45;11.60;99.90
60033;DHT22;45905;50.570;10.428;2023-02-17T15:52:13;11.60;99.90
60033;DHT22;45905;50.570;10.428;2023-02-17T15:54:41;11.60;99.90
60033;DHT22;45905;50.570;10.428;2023-02-17T15:57:27;11.60;99.90
60033;DHT22;45905;50.570;10.428;2023-02-17T15:59:54;11.60;99.90
60033;DHT22;45905;50.570;10.428;2023-02-17T16:02:23;11.60;99.90
60033;DHT22;45905;50.570;10.428;2023-02-17T16:04:51;11.60;99.90
60033;DHT22;45905;50.570;10.428;2023-02-17T16:07:18;11.60;99.90
60033;DHT22;45905;50.570;10.428;2023-02-17T16:09:45;11.60;99.90
60033;DHT22;45905;50.570;10.428;2023-02-17T16:12:18;11.60;99.90
60033;DHT22;45905;50.570;10.428;2023-02-17T16:14:53;11.60;99.90
60033;DHT22;45905;50.570;10.428;2023-02-17T16:17:21;11.60;99.90
60033;DHT22;45905;50.570;10.428;2023-02-17T16:19:48;11.60;99.90
60033;DHT22;45905;50.570;10.428;2023-02-17T16:22:16;11.60;99.90
60033;DHT22;45905;50.570;10.428;2023-02-17T16:24:43;11.60;99.90
60033;DHT22;45905;50.570;10.428;2023-02-17T16:27:15;11.60;99.90
60033;DHT22;45905;50.570;10.428;2023-02-17T16:29:42;11.50;99.90
60033;DHT22;45905;50.570;10.428;2023-02-17T16:32:11;11.50;99.90
60033;DHT22;45905;50.570;10.428;2023-02-17T16:34:38;11.50;99.90
60033;DHT22;45905;50.570;10.428;2023-02-17T16:37:14;11.50;99.90
60033;DHT22;45905;50.570;10.428;2023-02-17T16:39:43;11.50;99.90
60033;DHT22;45905;50.570;10.428;2023-02-17T16:42:11;11.50;99.90
60033;DHT22;45905;50.570;10.428;2023-02-17T16:44:40;11.50;99.90
60033;DHT22;45905;50.570;10.428;2023-02-17T16:47:19;11.50;99.90
60033;DHT22;45905;50.570;10.428;2023-02-17T16:49:48;11.50;99.90
60033;DHT22;45905;50.570;10.428;2023-02-17T16:52:24;11.50;99.90
60033;DHT22;45905;50.570;10.428;2023-02-17T16:54:53;11.50;99.90
60033;DHT22;45905;50.570;10.428;2023-02-17T16:57:20;11.50;99.90
60033;DHT22;45905;50.570;10.428;2023-02-17T16:59:48;11.40;99.90
60033;DHT22;45905;50.570;10.428;2023-02-17T17:02:15;11.50;99.90
60033;DHT22;45905;50.570;10.428;2023-02-17T17:04:43;11.50;99.90
60033;DHT22;45905;50.570;10.428;2023-02-17T17:07:13;11.50;99.90
60033;DHT22;45905;50.570;10.428;2023-02-17T17:09:41;11.50;99.90
60033;DHT22;45905;50.570;10.428;2023-02-17T17:12:18;11.50;99.90
60033;DHT22;45905;50.570;10.428;2023-02-17T17:14:45;11.40;99.90
60033;DHT22;45905;50.570;10.428;2023-02-17T17:17:12;11.50;99.90
60033;DHT22;45905;50.570;10.428;2023-02-17T17:19:39;11.50;99.90
60033;DHT22;45905;50.570;10.428;2023-02-17T17:22:06;11.40;99.90
60033;DHT22;45905;50.570;10.428;2023-02-17T17:24:33;11.50;99.90
60033;DHT22;45905;50.570;10.428;2023-02-17T17:27:00;11.50;99.90
60033;DHT22;45905;50.570;10.428;2023-02-17T17:29:27;11.50;99.90
60033;DHT22;45905;50.570;10.428;2023-02-17T17:31:55;11.50;99.90
60033;DHT22;45905;50.570;10.428;2023-02-17T17:34:22;11.40;99.90